Time;durP1;ratioP1;P1;durP2;ratioP2;P2;SDS_P1;SDS_P2;PMS_P1;PMS_P2;Temp;Humidity;BMP_temperature;BMP_pressure;BME280_temperature;BME280_humidity;BME280_pressure;Samples;Min_cycle;Max_cycle;Signal;HPM_P1;HPM_P2
2021/09/27 00:01:30;;;;;;;7.35;5.18;;;;;;;18.41;67.20;97431.59;4971893;28;20030;-79
2021/09/27 00:03:56;;;;;;;6.78;5.38;;;;;;;18.37;67.41;97435.84;4956457;28;20057;-79
2021/09/27 00:06:21;;;;;;;6.78;5.10;;;;;;;18.36;67.19;97431.66;4953384;28;20059;-79
2021/09/27 00:08:47;;;;;;;7.53;5.55;;;;;;;18.36;67.02;97423.75;4971336;28;20022;-79
2021/09/27 00:11:20;;;;;;;6.20;4.65;;;;;;;18.29;67.21;97430.16;4956022;28;20026;-79
2021/09/27 00:13:48;;;;;;;5.63;4.97;;;;;;;18.31;67.08;97432.53;4938525;28;20118;-79
2021/09/27 00:16:14;;;;;;;8.40;5.18;;;;;;;18.30;67.01;97431.75;4982423;28;20033;-78
2021/09/27 00:18:39;;;;;;;5.75;5.15;;;;;;;18.25;67.07;97431.03;4949011;28;20042;-79
2021/09/27 00:21:10;;;;;;;7.68;4.90;;;;;;;18.16;67.20;97436.16;4960818;28;20063;-79
2021/09/27 00:23:36;;;;;;;5.63;4.93;;;;;;;18.26;67.18;97429.97;4931274;28;20113;-79
2021/09/27 00:26:03;;;;;;;5.70;4.70;;;;;;;18.25;67.16;97420.47;4945229;28;20070;-79
2021/09/27 00:28:28;;;;;;;6.05;5.07;;;;;;;18.28;67.42;97419.91;4934945;28;20030;-79
2021/09/27 00:30:54;;;;;;;7.35;5.30;;;;;;;18.23;67.47;97425.25;4971823;28;20553;-79
2021/09/27 00:33:21;;;;;;;6.25;5.32;;;;;;;18.24;67.52;97413.66;4971393;28;20363;-79
2021/09/27 00:35:47;;;;;;;6.15;5.35;;;;;;;18.31;67.50;97412.22;4971853;28;20034;-79
2021/09/27 00:38:13;;;;;;;7.50;5.32;;;;;;;18.30;67.34;97409.84;4947197;28;20033;-79
2021/09/27 00:40:41;;;;;;;7.53;4.95;;;;;;;18.21;67.42;97419.50;4955355;28;20034;-79
2021/09/27 00:43:07;;;;;;;6.97;5.13;;;;;;;18.29;67.42;97413.59;4954968;28;20097;-79
2021/09/27 00:45:39;;;;;;;5.35;4.65;;;;;;;18.23;67.43;97412.88;4954097;28;20479;-79
2021/09/27 00:48:05;;;;;;;6.82;5.03;;;;;;;18.32;67.67;97411.16;4954993;28;20520;-79
2021/09/27 00:50:35;;;;;;;7.35;5.10;;;;;;;18.24;67.26;97405.75;4972532;28;20064;-79
2021/09/27 00:53:05;;;;;;;5.15;4.25;;;;;;;18.22;67.60;97402.63;4949400;28;20446;-79
2021/09/27 00:55:31;;;;;;;6.13;4.97;;;;;;;18.27;67.72;97399.91;4955004;28;20045;-79
2021/09/27 00:57:56;;;;;;;5.25;4.68;;;;;;;18.30;67.79;97405.38;4970904;28;20490;-79
2021/09/27 01:00:24;;;;;;;5.78;4.15;;;;;;;18.28;67.67;97390.91;4954990;28;20568;-78
2021/09/27 01:02:50;;;;;;;6.90;4.45;;;;;;;18.34;67.52;97395.03;4956976;28;20042;-78
2021/09/27 01:05:18;;;;;;;7.10;4.80;;;;;;;18.31;67.41;97395.63;4972509;28;20109;-78
2021/09/27 01:08:02;;;;;;;5.57;4.47;;;;;;;18.17;67.59;97389.53;4972929;28;20081;-79
2021/09/27 01:11:22;;;;;;;6.15;4.82;;;;;;;18.08;68.06;97392.03;4990239;28;20078;-78
2021/09/27 01:14:06;;;;;;;5.63;4.15;;;;;;;18.15;67.90;97393.22;4925749;29;20031;-79
2021/09/27 01:16:39;;;;;;;5.30;4.10;;;;;;;18.17;67.21;97386.91;4969705;28;20022;-79
2021/09/27 01:19:23;;;;;;;4.65;4.13;;;;;;;18.36;67.29;97392.91;4948915;28;20359;-79
2021/09/27 01:22:00;;;;;;;5.97;4.50;;;;;;;18.25;67.06;97392.28;4956386;28;20146;-79
2021/09/27 01:24:47;;;;;;;4.50;3.85;;;;;;;18.07;67.48;97393.88;4962591;28;20088;-79
2021/09/27 01:27:35;;;;;;;5.82;3.83;;;;;;;18.19;67.17;97392.66;4970463;28;20031;-78
2021/09/27 01:30:09;;;;;;;5.20;3.92;;;;;;;18.10;67.07;97389.91;4955251;28;20034;-79
2021/09/27 01:32:45;;;;;;;4.53;3.70;;;;;;;18.01;67.04;97389.78;4969953;28;20470;-79
2021/09/27 01:35:12;;;;;;;7.10;5.25;;;;;;;18.12;67.10;97391.16;4972688;28;20034;-79
2021/09/27 01:37:52;;;;;;;11.77;4.80;;;;;;;17.80;67.42;97376.06;4947220;28;20035;-79
2021/09/27 01:40:26;;;;;;;6.30;4.45;;;;;;;17.93;67.27;97393.81;4954049;28;20102;-79
2021/09/27 01:43:01;;;;;;;5.15;4.30;;;;;;;17.82;67.51;97389.75;4956745;28;20141;-80
2021/09/27 01:45:56;;;;;;;6.85;4.43;;;;;;;17.76;67.71;97386.41;4972900;28;20040;-79
2021/09/27 01:48:26;;;;;;;5.18;4.32;;;;;;;17.86;67.60;97382.88;4953063;28;20038;-79
2021/09/27 01:51:01;;;;;;;5.13;4.55;;;;;;;17.81;67.69;97382.16;4952902;28;20038;-79
2021/09/27 01:53:35;;;;;;;6.75;4.80;;;;;;;17.78;67.46;97384.25;4953517;28;20379;-79
2021/09/27 01:56:15;;;;;;;7.70;4.80;;;;;;;17.76;67.80;97396.94;4937869;28;20035;-79
2021/09/27 01:58:52;;;;;;;5.20;4.45;;;;;;;17.72;67.92;97390.69;4956173;28;20066;-79
2021/09/27 02:01:51;;;;;;;6.43;4.82;;;;;;;17.71;67.98;97389.09;4940481;28;20053;-79
2021/09/27 02:04:37;;;;;;;5.80;4.47;;;;;;;17.69;67.72;97385.97;4972961;28;20030;-79
2021/09/27 02:07:03;;;;;;;5.15;4.57;;;;;;;17.89;67.48;97386.78;4976066;28;20042;-78
2021/09/27 02:09:34;;;;;;;5.85;4.80;;;;;;;17.76;67.70;97386.41;4956354;28;20022;-79
2021/09/27 02:12:13;;;;;;;4.90;4.07;;;;;;;17.70;67.27;97392.03;4956434;28;20030;-79
2021/09/27 02:14:39;;;;;;;6.45;4.88;;;;;;;17.88;67.32;97393.13;4956492;28;20050;-79
2021/09/27 02:17:39;;;;;;;5.57;4.20;;;;;;;17.56;67.96;97381.41;4989651;28;20030;-79
2021/09/27 02:20:09;;;;;;;7.25;5.13;;;;;;;17.71;67.72;97385.69;4972683;28;20522;-79
2021/09/27 02:22:43;;;;;;;5.50;4.20;;;;;;;17.80;67.21;97389.25;4972205;28;20026;-79
2021/09/27 02:25:17;;;;;;;5.38;4.80;;;;;;;17.79;67.08;97390.31;4973662;28;20166;-79
2021/09/27 02:27:45;;;;;;;7.25;5.53;;;;;;;17.76;67.58;97386.41;4992892;28;20057;-79
2021/09/27 02:30:15;;;;;;;8.60;5.30;;;;;;;17.69;67.45;97379.94;4976143;28;20048;-79
2021/09/27 02:32:53;;;;;;;7.43;5.65;;;;;;;17.56;67.96;97381.41;4959318;28;20822;-78
2021/09/27 02:35:30;;;;;;;6.80;5.15;;;;;;;17.57;67.73;97375.09;4975442;28;20104;-78
2021/09/27 02:37:58;;;;;;;7.13;5.47;;;;;;;17.76;67.60;97385.63;4974616;28;20038;-79
2021/09/27 02:40:35;;;;;;;5.72;4.95;;;;;;;17.49;67.80;97373.88;4969172;28;20513;-78
2021/09/27 02:43:04;;;;;;;6.75;5.30;;;;;;;17.62;67.47;97367.13;4943278;28;20096;-79
2021/09/27 02:45:30;;;;;;;6.47;4.90;;;;;;;17.65;67.56;97371.84;4959803;28;20030;-79
2021/09/27 02:48:14;;;;;;;7.18;5.82;;;;;;;17.55;67.69;97374.59;4947237;28;20048;-79
2021/09/27 02:50:48;;;;;;;7.60;6.22;;;;;;;17.42;67.71;97366.31;4937290;28;20623;-79
2021/09/27 02:53:14;;;;;;;7.85;5.40;;;;;;;17.60;67.79;97358.72;4924825;28;20609;-79
2021/09/27 02:55:58;;;;;;;9.75;6.20;;;;;;;17.39;68.22;97361.66;4956625;28;20475;-79
2021/09/27 02:58:48;;;;;;;9.07;5.93;;;;;;;17.33;68.63;97354.09;4974082;28;20084;-79
2021/09/27 03:01:16;;;;;;;8.38;6.68;;;;;;;17.59;68.17;97365.84;4952857;28;20034;-79
2021/09/27 03:04:19;;;;;;;9.27;5.95;;;;;;;17.41;68.67;97361.38;4956628;28;20046;-79
2021/09/27 03:07:26;;;;;;;8.73;6.32;;;;;;;17.47;68.69;97347.06;4975603;28;20039;-79
2021/09/27 03:10:13;;;;;;;8.38;6.15;;;;;;;17.42;68.46;97345.25;4924091;28;20566;-79
2021/09/27 03:12:45;;;;;;;8.55;6.25;;;;;;;17.71;68.05;97340.94;4975541;28;20116;-79
2021/09/27 03:15:36;;;;;;;10.48;6.32;;;;;;;17.55;68.22;97340.38;4959759;28;20502;-79
2021/09/27 03:18:10;;;;;;;9.88;6.13;;;;;;;17.58;67.82;97339.78;4975824;28;20374;-79
2021/09/27 03:21:28;;;;;;;8.98;5.90;;;;;;;17.44;68.56;97333.69;4959337;28;20057;-79
2021/09/27 03:24:24;;;;;;;9.20;6.85;;;;;;;17.53;68.28;97337.22;4938933;28;20042;-79
2021/09/27 03:26:56;;;;;;;8.52;6.38;;;;;;;17.68;68.09;97344.13;4963966;28;20065;-79
2021/09/27 03:29:34;;;;;;;9.90;6.60;;;;;;;17.70;67.94;97349.88;4975795;28;20029;-79
2021/09/27 03:32:12;;;;;;;10.02;6.82;;;;;;;17.81;67.68;97346.03;4959259;28;20446;-79
2021/09/27 03:35:13;;;;;;;8.70;6.70;;;;;;;17.50;68.95;97350.97;4978570;28;20034;-78
2021/09/27 03:37:49;;;;;;;9.32;7.15;;;;;;;17.60;68.50;97343.72;4943478;28;20406;-79
2021/09/27 03:40:19;;;;;;;9.60;6.63;;;;;;;17.78;68.05;97344.75;4984590;28;20042;-79
2021/09/27 03:42:53;;;;;;;9.60;6.72;;;;;;;17.67;67.97;97351.25;4959247;28;20122;-78
2021/09/27 03:45:23;;;;;;;11.10;6.57;;;;;;;17.64;68.27;97357.09;4963663;28;20041;-79
2021/09/27 03:48:00;;;;;;;9.38;7.15;;;;;;;17.56;68.15;97357.72;4958370;28;20065;-79
2021/09/27 03:50:32;;;;;;;9.25;7.00;;;;;;;17.59;67.96;97360.56;4974961;28;20150;-78
2021/09/27 03:53:11;;;;;;;9.93;6.75;;;;;;;17.51;68.39;97361.22;4958625;28;20360;-79
2021/09/27 03:55:44;;;;;;;9.38;6.82;;;;;;;17.62;67.84;97363.72;4958892;28;20442;-79
2021/09/27 03:58:13;;;;;;;9.50;6.43;;;;;;;17.73;67.71;97357.22;4954283;28;20080;-79
2021/09/27 04:00:44;;;;;;;8.75;6.10;;;;;;;17.59;67.88;97355.31;4972555;28;20030;-79
2021/09/27 04:03:47;;;;;;;9.52;6.47;;;;;;;17.46;68.00;97360.50;4958448;28;20500;-79
2021/09/27 04:06:34;;;;;;;9.18;6.70;;;;;;;17.59;67.82;97365.06;4978889;28;20121;-79
2021/09/27 04:09:05;;;;;;;8.48;6.60;;;;;;;17.49;67.81;97355.44;4992257;28;20030;-79
2021/09/27 04:12:02;;;;;;;9.77;5.80;;;;;;;17.38;67.97;97356.66;4958456;28;20038;-79
2021/09/27 04:14:41;;;;;;;8.18;6.00;;;;;;;17.39;67.91;97359.00;4985640;28;20644;-79
2021/09/27 04:17:22;;;;;;;8.50;5.88;;;;;;;17.40;67.95;97349.25;4974688;28;20038;-79
2021/09/27 04:19:50;;;;;;;8.77;6.13;;;;;;;17.55;67.84;97358.81;4974594;28;20394;-79
2021/09/27 04:22:35;;;;;;;7.95;6.00;;;;;;;17.29;67.98;97348.63;4942090;28;20030;-78
2021/09/27 04:25:22;;;;;;;7.60;5.82;;;;;;;17.51;68.02;97352.53;4974447;28;20045;-79
2021/09/27 04:27:57;;;;;;;9.00;6.45;;;;;;;17.42;68.47;97355.78;4974201;28;20425;-79
2021/09/27 04:30:50;;;;;;;9.23;6.72;;;;;;;17.37;68.40;97352.44;4958168;28;20038;-79
2021/09/27 04:33:45;;;;;;;8.05;6.18;;;;;;;17.50;68.23;97357.03;4974343;28;20049;-79
2021/09/27 04:36:21;;;;;;;8.90;6.87;;;;;;;17.65;68.17;97348.13;4937727;28;20038;-79
2021/09/27 04:38:52;;;;;;;8.63;6.72;;;;;;;17.52;68.30;97356.75;4978023;28;20034;-79
2021/09/27 04:41:40;;;;;;;8.55;5.97;;;;;;;17.61;67.80;97357.66;4957549;28;20088;-79
2021/09/27 04:44:17;;;;;;;8.05;5.97;;;;;;;17.53;68.10;97356.47;4942179;28;20422;-79
2021/09/27 04:46:58;;;;;;;9.55;7.50;;;;;;;17.45;68.46;97353.69;4958310;28;20490;-78
2021/09/27 04:50:02;;;;;;;8.48;6.13;;;;;;;17.56;68.28;97365.63;4973555;28;20053;-78
2021/09/27 04:52:49;;;;;;;8.77;6.00;;;;;;;17.69;67.96;97364.91;4973399;28;20446;-79
2021/09/27 04:55:45;;;;;;;8.18;6.68;;;;;;;17.57;68.24;97367.19;4974473;28;20030;-79
2021/09/27 04:58:45;;;;;;;9.10;6.68;;;;;;;17.62;68.29;97374.25;4974217;28;20058;-79
2021/09/27 05:01:24;;;;;;;9.35;7.03;;;;;;;17.82;67.71;97373.97;4956639;28;20057;-79
2021/09/27 05:04:19;;;;;;;10.05;7.00;;;;;;;17.62;68.52;97369.75;4956862;28;20054;-78
2021/09/27 05:07:09;;;;;;;7.63;6.47;;;;;;;17.56;68.41;97366.44;4957242;28;20493;-78
2021/09/27 05:09:47;;;;;;;8.73;7.18;;;;;;;17.67;68.03;97366.28;4973281;28;20110;-79
2021/09/27 05:12:41;;;;;;;10.73;6.22;;;;;;;17.47;68.74;97356.81;4956639;28;20971;-79
2021/09/27 05:15:34;;;;;;;8.45;6.32;;;;;;;17.54;67.99;97363.28;4888116;28;20084;-78
2021/09/27 05:18:18;;;;;;;9.30;5.97;;;;;;;17.49;67.93;97365.97;4956782;28;20030;-79
2021/09/27 05:21:13;;;;;;;7.18;5.63;;;;;;;17.45;67.85;97361.56;4956813;28;20062;-79
2021/09/27 05:23:57;;;;;;;6.63;5.40;;;;;;;17.40;68.07;97357.94;4956943;28;20110;-79
2021/09/27 05:26:43;;;;;;;7.50;6.15;;;;;;;17.38;67.86;97354.81;4972860;28;20065;-78
2021/09/27 05:29:17;;;;;;;6.75;6.05;;;;;;;17.63;67.47;97360.78;4990359;28;20022;-79
2021/09/27 05:31:48;;;;;;;7.90;6.10;;;;;;;17.57;67.70;97351.41;4972455;28;20117;-79
2021/09/27 05:34:56;;;;;;;8.07;5.88;;;;;;;17.29;67.97;97346.00;4956902;28;20035;-78
2021/09/27 05:37:49;;;;;;;9.15;5.55;;;;;;;17.26;68.19;97349.19;4944091;28;20048;-79
2021/09/27 05:40:19;;;;;;;8.07;6.13;;;;;;;17.60;67.76;97356.09;4947699;28;20046;-78
2021/09/27 05:43:07;;;;;;;6.40;5.38;;;;;;;17.40;67.96;97362.41;4941238;28;20034;-78
2021/09/27 05:45:38;;;;;;;7.75;5.55;;;;;;;17.45;67.57;97351.06;4957365;28;20038;-79
2021/09/27 05:48:22;;;;;;;6.55;5.30;;;;;;;17.61;67.42;97347.13;4973632;28;20030;-78
2021/09/27 05:50:56;;;;;;;6.70;5.50;;;;;;;17.39;67.93;97350.31;4956852;28;20072;-78
2021/09/27 05:54:12;;;;;;;7.53;5.82;;;;;;;17.36;68.25;97350.91;4957348;28;20038;-78
2021/09/27 05:56:56;;;;;;;;;;;;;;;17.29;68.97;97348.63;4933403;28;20045;-79
2021/09/27 05:59:36;;;;;;;7.70;5.35;;;;;;;17.52;68.29;97348.84;4958224;28;19925;-79
2021/09/27 06:02:13;;;;;;;6.80;5.95;;;;;;;17.56;67.94;97353.25;4989014;28;20108;-78
2021/09/27 06:05:10;;;;;;;6.00;5.35;;;;;;;17.61;68.26;97362.91;4944517;28;20088;-78
2021/09/27 06:08:16;;;;;;;7.25;5.85;;;;;;;17.54;68.34;97357.22;4994480;28;20038;-78
2021/09/27 06:10:45;;;;;;;8.02;6.45;;;;;;;17.83;67.98;97357.06;4960742;28;20030;-78
2021/09/27 06:13:22;;;;;;;6.95;6.05;;;;;;;17.65;68.12;97361.28;4959816;28;20085;-79
2021/09/27 06:15:59;;;;;;;7.72;5.82;;;;;;;17.84;67.89;97361.28;4957677;28;20077;-79
2021/09/27 06:18:40;;;;;;;7.95;6.53;;;;;;;17.91;67.96;97364.34;4940937;28;20039;-78
2021/09/27 06:21:17;;;;;;;8.10;5.80;;;;;;;17.91;68.09;97358.31;4957170;28;20094;-78
2021/09/27 06:24:25;;;;;;;8.82;6.00;;;;;;;17.71;68.57;97364.63;4973556;28;20065;-79
2021/09/27 06:26:59;;;;;;;7.38;5.85;;;;;;;17.77;68.46;97364.28;4966634;28;20070;-78
2021/09/27 06:29:44;;;;;;;7.97;5.57;;;;;;;17.81;68.65;97361.84;4970529;28;20027;-79
2021/09/27 06:32:21;;;;;;;7.78;5.70;;;;;;;18.10;68.37;97356.41;4972116;28;20038;-78
2021/09/27 06:34:55;;;;;;;6.13;5.53;;;;;;;18.02;68.24;97362.34;4941361;28;20108;-78
2021/09/27 06:37:22;;;;;;;8.10;5.97;;;;;;;18.13;67.87;97360.34;4925254;28;20166;-78
2021/09/27 06:39:49;;;;;;;8.38;5.93;;;;;;;18.19;67.94;97356.53;4941301;28;20517;-78
2021/09/27 06:42:14;;;;;;;8.55;5.88;;;;;;;18.32;68.07;97362.94;4973520;28;20498;-78
2021/09/27 06:44:44;;;;;;;7.30;5.57;;;;;;;18.36;67.63;97356.00;4974902;28;20037;-79
2021/09/27 06:47:10;;;;;;;8.65;5.53;;;;;;;18.38;67.75;97359.13;4975013;28;20695;-79
2021/09/27 06:49:35;;;;;;;6.88;5.63;;;;;;;18.41;67.88;97360.41;4942705;28;20132;-78
2021/09/27 06:52:01;;;;;;;8.10;6.18;;;;;;;18.52;67.68;97364.41;4958175;28;20384;-79
2021/09/27 06:54:26;;;;;;;7.22;5.85;;;;;;;18.62;67.71;97363.44;4974947;28;20022;-78
2021/09/27 06:56:52;;;;;;;7.10;5.43;;;;;;;18.69;67.86;97353.28;4942612;28;20035;-78
2021/09/27 06:59:18;;;;;;;8.13;6.00;;;;;;;18.78;67.36;97354.19;4942266;28;20027;-79
2021/09/27 07:01:45;;;;;;;9.10;6.45;;;;;;;18.86;67.87;97358.78;4958257;28;20039;-79
2021/09/27 07:04:10;;;;;;;7.55;5.88;;;;;;;18.94;67.30;97353.94;4958494;28;20030;-78
2021/09/27 07:06:39;;;;;;;7.55;6.13;;;;;;;18.94;67.34;97353.94;4963394;28;20407;-79
2021/09/27 07:09:04;;;;;;;7.35;5.43;;;;;;;18.94;67.33;97353.94;4926863;28;20214;-79
2021/09/27 07:11:30;;;;;;;7.07;5.93;;;;;;;18.94;67.46;97348.66;4937368;28;20486;-78
2021/09/27 07:13:55;;;;;;;6.47;5.82;;;;;;;19.03;67.47;97360.84;4957907;28;20034;-79
2021/09/27 07:16:21;;;;;;;7.78;5.88;;;;;;;19.16;67.63;97361.91;4933318;28;20065;-79
2021/09/27 07:18:46;;;;;;;7.18;5.63;;;;;;;19.27;66.98;97363.25;4936407;28;20027;-79
2021/09/27 07:21:11;;;;;;;6.85;5.57;;;;;;;19.39;66.92;97364.63;4951723;28;20034;-79
2021/09/27 07:23:39;;;;;;;7.53;5.43;;;;;;;19.40;66.44;97359.03;4922465;28;20479;-79
2021/09/27 07:26:13;;;;;;;7.05;5.30;;;;;;;19.63;65.79;97361.72;4925035;28;20056;-79
2021/09/27 07:28:39;;;;;;;5.55;4.80;;;;;;;19.96;65.04;97370.25;4972188;28;20064;-79
2021/09/27 07:31:06;;;;;;;5.25;4.75;;;;;;;19.99;65.89;97363.56;4971916;28;20375;-79
2021/09/27 07:33:33;;;;;;;7.05;5.20;;;;;;;20.23;65.02;97360.59;4973479;28;20034;-79
2021/09/27 07:35:58;;;;;;;6.43;4.50;;;;;;;20.45;64.49;97369.59;4973362;28;20703;-79
2021/09/27 07:38:24;;;;;;;4.97;4.47;;;;;;;20.50;64.48;97357.00;4940084;28;20032;-79
2021/09/27 07:40:51;;;;;;;5.70;4.43;;;;;;;20.72;64.01;97363.38;4941011;28;20514;-79
2021/09/27 07:43:16;;;;;;;5.35;4.85;;;;;;;20.76;63.40;97364.31;4957294;28;20493;-79
2021/09/27 07:45:42;;;;;;;5.57;4.38;;;;;;;20.84;62.89;97371.50;4957033;28;20030;-79
2021/09/27 07:48:11;;;;;;;5.72;4.70;;;;;;;20.64;64.10;97362.22;4972170;28;20093;-78
2021/09/27 07:50:37;;;;;;;5.57;4.25;;;;;;;20.67;63.40;97361.63;4956091;28;20035;-79
2021/09/27 07:53:03;;;;;;;5.70;5.10;;;;;;;20.55;64.02;97359.53;4973189;28;20398;-79
2021/09/27 07:55:29;;;;;;;6.30;4.85;;;;;;;20.52;64.05;97367.28;4956616;28;20306;-79
2021/09/27 07:57:54;;;;;;;4.93;4.43;;;;;;;20.50;64.11;97358.88;4971770;28;20101;-79
2021/09/27 08:00:20;;;;;;;5.20;4.53;;;;;;;20.43;64.18;97359.31;4956399;28;20436;-79
2021/09/27 08:02:45;;;;;;;6.40;4.95;;;;;;;20.48;64.74;97353.91;4940250;28;20508;-79
2021/09/27 08:05:18;;;;;;;7.72;4.95;;;;;;;20.51;64.63;97361.22;4956978;28;20031;-79
2021/09/27 08:07:43;;;;;;;5.18;4.18;;;;;;;20.73;63.72;97363.06;4938875;28;20361;-79
2021/09/27 08:10:10;;;;;;;5.28;4.65;;;;;;;20.95;63.91;97361.41;4950568;28;20128;-79
2021/09/27 08:12:37;;;;;;;5.32;4.35;;;;;;;21.13;63.08;97357.72;4958733;28;20038;-79
2021/09/27 08:15:10;;;;;;;6.15;4.15;;;;;;;20.99;63.10;97350.97;4992139;28;20072;-79
2021/09/27 08:17:36;;;;;;;5.30;4.80;;;;;;;21.49;62.34;97348.75;4947035;28;20030;-79
2021/09/27 08:20:04;;;;;;;4.38;3.92;;;;;;;21.50;62.01;97352.94;4937293;28;20037;-79
2021/09/27 08:22:29;;;;;;;5.80;3.67;;;;;;;21.75;61.66;97341.91;4951067;28;20608;-79
2021/09/27 08:24:54;;;;;;;5.50;4.13;;;;;;;21.85;61.83;97352.97;4965650;28;20121;-79
2021/09/27 08:27:20;;;;;;;5.70;4.30;;;;;;;22.00;60.75;97350.91;4939613;28;20037;-79
2021/09/27 08:29:45;;;;;;;4.43;3.85;;;;;;;22.34;60.23;97341.34;4939752;28;20422;-79
2021/09/27 08:32:10;;;;;;;4.15;3.63;;;;;;;22.49;59.72;97351.44;4940314;28;20105;-79
2021/09/27 08:34:36;;;;;;;3.58;3.28;;;;;;;22.43;58.60;97344.75;4936768;28;20089;-79
2021/09/27 08:37:02;;;;;;;3.95;3.55;;;;;;;22.46;59.52;97349.44;4977437;28;20049;-80
2021/09/27 08:39:28;;;;;;;4.22;3.30;;;;;;;22.55;58.61;97352.84;4955431;28;20521;-79
2021/09/27 08:42:05;;;;;;;4.47;3.80;;;;;;;22.35;59.50;97359.59;4955656;28;20030;-79
2021/09/27 08:44:36;;;;;;;4.68;4.00;;;;;;;22.41;58.89;97365.50;4939920;28;20065;-79
2021/09/27 08:47:12;;;;;;;6.97;4.15;;;;;;;21.92;61.25;97365.75;4988967;28;20141;-81
2021/09/27 08:49:47;;;;;;;4.45;4.00;;;;;;;21.88;61.34;97378.06;4938980;28;20041;-79
2021/09/27 08:52:14;;;;;;;4.97;4.32;;;;;;;21.93;61.59;97374.47;4938838;28;20033;-78
2021/09/27 08:54:41;;;;;;;5.50;3.72;;;;;;;21.94;61.11;97370.75;4953724;28;20042;-79
2021/09/27 08:57:25;;;;;;;4.18;3.75;;;;;;;21.87;61.03;97361.38;4954366;28;20379;-78
2021/09/27 09:00:09;;;;;;;3.60;3.17;;;;;;;22.10;59.82;97368.38;4935357;28;20093;-78
2021/09/27 09:02:54;;;;;;;6.60;4.00;;;;;;;22.29;60.05;97360.09;4938388;28;20033;-77
2021/09/27 09:05:28;;;;;;;4.55;3.40;;;;;;;22.68;58.74;97355.59;4969276;28;20064;-78
2021/09/27 09:08:02;;;;;;;4.13;2.95;;;;;;;22.68;58.92;97356.38;4935205;28;20386;-79
2021/09/27 09:10:41;;;;;;;4.72;3.35;;;;;;;22.94;57.90;97353.59;4953644;28;20027;-78
2021/09/27 09:13:09;;;;;;;4.00;3.58;;;;;;;23.33;58.24;97356.97;4931007;28;20045;-78
2021/09/27 09:15:36;;;;;;;3.47;2.78;;;;;;;23.52;56.86;97350.44;4950301;28;20030;-79
2021/09/27 09:18:04;;;;;;;5.78;3.60;;;;;;;23.47;56.14;97358.59;4955133;28;20084;-78
2021/09/27 09:20:55;;;;;;;3.92;3.08;;;;;;;23.54;56.03;97356.22;4950634;28;20050;-78
2021/09/27 09:23:30;;;;;;;4.68;3.20;;;;;;;23.81;55.96;97359.44;4936711;28;20486;-79
2021/09/27 09:25:58;;;;;;;3.40;3.10;;;;;;;24.17;56.41;97353.50;4952299;28;20046;-79
2021/09/27 09:28:23;;;;;;;3.53;3.20;;;;;;;24.40;55.14;97356.53;4954920;28;20018;-79
2021/09/27 09:31:05;;;;;;;3.30;2.95;;;;;;;24.45;55.29;97360.84;4955053;28;20046;-79
2021/09/27 09:33:41;;;;;;;5.47;2.30;;;;;;;24.65;54.16;97356.59;4972158;28;20042;-79
2021/09/27 09:36:10;;;;;;;3.67;2.78;;;;;;;24.84;53.86;97353.38;4959254;28;20034;-79
2021/09/27 09:38:37;;;;;;;4.05;3.20;;;;;;;24.87;54.07;97358.03;4974672;28;20038;-80
2021/09/27 09:41:03;;;;;;;3.22;2.55;;;;;;;24.93;53.45;97353.25;4942509;28;20026;-79
2021/09/27 09:43:38;;;;;;;3.97;3.00;;;;;;;24.68;53.97;97355.94;4992688;28;20070;-79
2021/09/27 09:46:07;;;;;;;3.15;2.83;;;;;;;24.78;54.06;97358.16;4968616;28;20066;-79
2021/09/27 09:48:36;;;;;;;5.50;3.08;;;;;;;24.49;55.51;97362.53;4950503;28;20023;-79
2021/09/27 09:51:23;;;;;;;2.80;2.33;;;;;;;24.28;53.90;97361.81;4940771;28;20498;-79
2021/09/27 09:54:25;;;;;;;3.78;2.38;;;;;;;23.83;54.38;97354.59;4955555;28;20105;-79
2021/09/27 09:57:03;;;;;;;3.22;2.65;;;;;;;23.67;55.03;97357.81;4923171;28;20349;-79
2021/09/27 09:59:42;;;;;;;3.45;2.70;;;;;;;23.60;55.29;97357.56;4958817;28;20402;-79
2021/09/27 10:02:17;;;;;;;2.95;2.63;;;;;;;23.48;56.06;97358.28;4957885;28;20125;-80
2021/09/27 10:04:59;;;;;;;3.60;3.28;;;;;;;23.46;56.88;97357.84;4939862;28;20415;-80
2021/09/27 10:07:27;;;;;;;5.20;2.70;;;;;;;23.68;56.44;97358.59;4971420;28;20034;-79
2021/09/27 10:09:55;;;;;;;2.90;2.70;;;;;;;23.67;56.92;97362.38;4974997;28;20275;-79
2021/09/27 10:12:43;;;;;;;3.22;2.92;;;;;;;23.34;58.47;97353.22;4971910;28;20536;-79
2021/09/27 10:15:16;;;;;;;3.75;3.08;;;;;;;23.43;57.43;97352.41;4939049;28;20101;-79
2021/09/27 10:17:42;;;;;;;3.47;2.65;;;;;;;23.68;57.59;97353.28;4947344;28;20034;-79
2021/09/27 10:20:15;;;;;;;2.65;2.40;;;;;;;23.59;56.31;97353.34;4958428;28;20330;-79
2021/09/27 10:22:52;;;;;;;2.92;2.63;;;;;;;23.46;56.15;97341.91;4969471;28;20027;-79
2021/09/27 10:25:46;;;;;;;3.25;2.78;;;;;;;23.43;57.45;97345.19;4966750;28;20067;-79
2021/09/27 10:28:20;;;;;;;3.60;3.05;;;;;;;23.59;57.85;97350.69;4971151;28;20068;-79
2021/09/27 10:30:55;;;;;;;3.78;2.58;;;;;;;23.74;56.77;97352.75;4971933;28;20382;-79
2021/09/27 10:33:27;;;;;;;3.13;2.83;;;;;;;23.31;57.79;97361.84;4959531;28;20035;-79
2021/09/27 10:36:00;;;;;;;3.97;2.60;;;;;;;23.44;56.67;97345.97;4959055;28;20034;-79
2021/09/27 10:38:46;;;;;;;3.17;2.88;;;;;;;23.53;58.79;97352.00;4992916;28;20034;-79
2021/09/27 10:41:25;;;;;;;4.15;2.63;;;;;;;23.91;56.35;97353.75;4975473;28;20034;-79
2021/09/27 10:43:54;;;;;;;4.22;3.00;;;;;;;24.10;55.31;97348.69;4943549;28;20034;-79
2021/09/27 10:46:22;;;;;;;3.00;2.50;;;;;;;24.04;56.05;97344.72;4958410;28;20034;-79
2021/09/27 10:48:50;;;;;;;3.40;2.40;;;;;;;24.20;55.44;97357.38;4959119;28;20026;-79
2021/09/27 10:51:17;;;;;;;5.82;2.67;;;;;;;23.97;55.65;97347.09;4958959;28;20030;-79
2021/09/27 10:53:44;;;;;;;2.70;2.50;;;;;;;24.09;56.38;97355.16;4958367;28;20129;-79
2021/09/27 10:56:36;;;;;;;3.45;2.58;;;;;;;23.92;55.71;97349.97;4959312;28;20042;-79
2021/09/27 10:59:06;;;;;;;4.07;2.78;;;;;;;24.01;55.79;97349.88;4975052;28;20041;-79
2021/09/27 11:01:37;;;;;;;3.47;2.75;;;;;;;24.10;55.31;97355.91;4959026;28;20030;-79
2021/09/27 11:04:06;;;;;;;2.63;2.35;;;;;;;23.64;56.93;97347.06;4992032;28;20049;-80
2021/09/27 11:06:43;;;;;;;4.43;2.80;;;;;;;23.70;56.87;97345.75;4969820;28;20047;-79
2021/09/27 11:09:32;;;;;;;4.40;2.75;;;;;;;23.52;56.33;97340.59;4973783;28;20031;-79
2021/09/27 11:12:07;;;;;;;4.95;3.70;;;;;;;23.69;57.09;97338.91;4940984;28;20034;-79
2021/09/27 11:14:37;;;;;;;3.45;2.58;;;;;;;24.03;55.51;97343.16;4935941;28;20042;-79
2021/09/27 11:17:05;;;;;;;2.85;2.60;;;;;;;24.16;53.96;97348.50;4968886;28;20447;-79
2021/09/27 11:19:34;;;;;;;2.80;2.50;;;;;;;24.19;54.91;97353.16;4974669;28;20026;-79
2021/09/27 11:22:18;;;;;;;3.13;2.88;;;;;;;24.06;56.00;97347.81;4991435;28;20511;-79
2021/09/27 11:24:43;;;;;;;3.10;2.30;;;;;;;24.45;55.94;97351.00;4940438;28;20093;-79
2021/09/27 11:27:13;;;;;;;3.38;2.33;;;;;;;24.73;54.99;97341.59;4984388;28;20034;-79
2021/09/27 11:29:48;;;;;;;3.72;2.63;;;;;;;24.58;52.64;97337.72;4956856;28;20475;-79
2021/09/27 11:32:22;;;;;;;2.83;2.42;;;;;;;24.72;52.54;97326.75;4972498;28;20059;-79
2021/09/27 11:35:29;;;;;;;2.83;2.50;;;;;;;24.52;53.50;97325.72;4965426;28;20042;-79
2021/09/27 11:37:54;;;;;;;2.70;2.28;;;;;;;24.55;52.59;97335.72;4937296;28;20042;-79
2021/09/27 11:40:23;;;;;;;2.65;2.08;;;;;;;24.32;54.04;97333.47;4991905;28;20106;-79
2021/09/27 11:43:01;;;;;;;2.80;2.40;;;;;;;24.00;54.17;97333.16;4954689;28;20045;-79
2021/09/27 11:45:54;;;;;;;3.30;2.53;;;;;;;23.66;56.37;97339.53;4969251;28;20038;-79
2021/09/27 11:48:19;;;;;;;2.72;2.53;;;;;;;23.98;55.30;97340.69;4973342;28;20034;-79
2021/09/27 11:51:01;;;;;;;5.30;2.65;;;;;;;23.95;56.85;97336.03;4957934;28;20129;-79
2021/09/27 11:53:38;;;;;;;2.35;2.15;;;;;;;24.67;54.45;97335.72;4974637;28;20394;-79
2021/09/27 11:56:25;;;;;;;3.17;2.75;;;;;;;24.88;54.33;97332.94;4966363;28;20038;-79
2021/09/27 11:59:23;;;;;;;2.63;2.33;;;;;;;24.74;50.81;97330.63;4971944;28;20038;-79
2021/09/27 12:01:57;;;;;;;2.38;1.95;;;;;;;24.71;51.54;97320.66;4916011;28;20082;-80
2021/09/27 12:04:59;;;;;;;2.38;2.17;;;;;;;24.36;53.17;97315.72;4973630;28;20026;-79
2021/09/27 12:07:33;;;;;;;3.00;2.08;;;;;;;24.35;53.85;97318.72;4963044;28;20048;-79
2021/09/27 12:10:16;;;;;;;1.90;1.80;;;;;;;24.43;52.96;97313.28;4974365;28;20066;-79
2021/09/27 12:12:54;;;;;;;2.08;1.95;;;;;;;24.64;52.35;97302.56;4988692;28;20058;-80
2021/09/27 12:15:23;;;;;;;2.35;2.22;;;;;;;24.82;51.38;97307.66;4991544;28;20066;-80